Oquossoc, Maine
Current Conditions -  °F | °C
As of 12:52 PM on Thursday 30 Oct 2014 (Local Time) from KBML Reporting Station
Light Rain Light Rain  
Wind Chill: 42°   Ceiling: 3700
Heat Index: 46°   Visibility: 10mi
Dew Point: 36°   Wind: 7mph
Humidity: 68%   Direction: 320°NW
Pressure: 29.9"   Gusts: NA
Location:  44.97°N, 70.77°W
Report Text: KBML 301652Z AUTO 32006KT 10SM -RA SCT029 OVC037 08/02 A2990 RMK AO2 RAB49 SLP134 P0000 T00780022
Loading
Personal Weather Stations






























Interactive Weather Map
Tropical Storm Tracking
New forecast layout! Learn more

10-Day Weather Forecast

Advertisements
Track Severe Weather on mobile